sensor_id;sensor_type;location;lat;lon;timestamp;P1;durP1;ratioP1;P2;durP2;ratioP2
73678;SDS011;61978;52.742;16.962;2023-05-23T00:01:37;10.10;;;7.50;;
73678;SDS011;61978;52.742;16.962;2023-05-23T00:04:03;14.00;;;7.50;;
73678;SDS011;61978;52.742;16.962;2023-05-23T00:06:29;10.10;;;7.20;;
73678;SDS011;61978;52.742;16.962;2023-05-23T00:08:55;9.10;;;7.10;;
73678;SDS011;61978;52.742;16.962;2023-05-23T00:11:22;9.90;;;7.00;;
73678;SDS011;61978;52.742;16.962;2023-05-23T00:13:53;11.50;;;7.50;;
73678;SDS011;61978;52.742;16.962;2023-05-23T00:16:20;9.10;;;6.90;;
73678;SDS011;61978;52.742;16.962;2023-05-23T00:18:47;8.70;;;7.30;;
73678;SDS011;61978;52.742;16.962;2023-05-23T00:21:16;10.30;;;7.10;;
73678;SDS011;61978;52.742;16.962;2023-05-23T00:23:42;8.90;;;6.70;;
73678;SDS011;61978;52.742;16.962;2023-05-23T00:26:08;9.80;;;7.20;;
73678;SDS011;61978;52.742;16.962;2023-05-23T00:28:36;10.50;;;7.50;;
73678;SDS011;61978;52.742;16.962;2023-05-23T00:31:02;14.10;;;6.90;;
73678;SDS011;61978;52.742;16.962;2023-05-23T00:33:28;12.10;;;6.60;;
73678;SDS011;61978;52.742;16.962;2023-05-23T00:35:58;9.20;;;7.40;;
73678;SDS011;61978;52.742;16.962;2023-05-23T00:38:24;15.30;;;7.30;;
73678;SDS011;61978;52.742;16.962;2023-05-23T00:40:51;12.10;;;7.60;;
73678;SDS011;61978;52.742;16.962;2023-05-23T00:43:17;10.60;;;6.60;;
73678;SDS011;61978;52.742;16.962;2023-05-23T00:45:48;13.80;;;7.20;;
73678;SDS011;61978;52.742;16.962;2023-05-23T00:48:15;14.50;;;7.40;;
73678;SDS011;61978;52.742;16.962;2023-05-23T00:50:42;12.10;;;7.20;;
73678;SDS011;61978;52.742;16.962;2023-05-23T00:53:08;13.20;;;7.10;;
73678;SDS011;61978;52.742;16.962;2023-05-23T00:55:34;10.40;;;6.80;;
73678;SDS011;61978;52.742;16.962;2023-05-23T00:58:01;9.60;;;7.10;;
73678;SDS011;61978;52.742;16.962;2023-05-23T01:00:27;8.60;;;6.90;;
73678;SDS011;61978;52.742;16.962;2023-05-23T01:02:54;15.80;;;7.60;;
73678;SDS011;61978;52.742;16.962;2023-05-23T01:05:21;11.80;;;7.20;;
73678;SDS011;61978;52.742;16.962;2023-05-23T01:07:50;9.30;;;6.70;;
73678;SDS011;61978;52.742;16.962;2023-05-23T01:10:18;11.20;;;7.30;;
73678;SDS011;61978;52.742;16.962;2023-05-23T01:15:32;14.00;;;7.20;;
73678;SDS011;61978;52.742;16.962;2023-05-23T01:18:22;12.90;;;7.90;;
73678;SDS011;61978;52.742;16.962;2023-05-23T01:20:54;16.00;;;7.50;;
73678;SDS011;61978;52.742;16.962;2023-05-23T01:28:32;8.20;;;7.20;;
73678;SDS011;61978;52.742;16.962;2023-05-23T01:31:03;12.80;;;7.50;;
73678;SDS011;61978;52.742;16.962;2023-05-23T01:33:30;11.50;;;7.60;;
73678;SDS011;61978;52.742;16.962;2023-05-23T01:35:59;12.70;;;7.00;;
73678;SDS011;61978;52.742;16.962;2023-05-23T01:38:26;12.40;;;7.50;;
73678;SDS011;61978;52.742;16.962;2023-05-23T01:40:52;17.50;;;7.50;;
73678;SDS011;61978;52.742;16.962;2023-05-23T01:43:18;10.40;;;8.30;;
73678;SDS011;61978;52.742;16.962;2023-05-23T01:45:45;12.50;;;8.10;;
73678;SDS011;61978;52.742;16.962;2023-05-23T01:48:12;13.20;;;7.90;;
73678;SDS011;61978;52.742;16.962;2023-05-23T01:50:41;10.90;;;8.20;;
73678;SDS011;61978;52.742;16.962;2023-05-23T01:53:11;10.30;;;8.00;;
73678;SDS011;61978;52.742;16.962;2023-05-23T01:55:37;14.10;;;8.10;;
73678;SDS011;61978;52.742;16.962;2023-05-23T01:58:04;9.90;;;8.10;;
73678;SDS011;61978;52.742;16.962;2023-05-23T02:00:30;10.20;;;8.10;;
73678;SDS011;61978;52.742;16.962;2023-05-23T02:02:57;14.70;;;8.80;;
73678;SDS011;61978;52.742;16.962;2023-05-23T02:05:24;11.50;;;7.90;;
73678;SDS011;61978;52.742;16.962;2023-05-23T02:07:50;10.80;;;8.20;;
73678;SDS011;61978;52.742;16.962;2023-05-23T02:10:16;11.00;;;7.80;;
73678;SDS011;61978;52.742;16.962;2023-05-23T02:12:42;13.40;;;8.20;;
73678;SDS011;61978;52.742;16.962;2023-05-23T02:15:08;9.90;;;8.20;;
73678;SDS011;61978;52.742;16.962;2023-05-23T02:17:35;11.00;;;7.70;;
73678;SDS011;61978;52.742;16.962;2023-05-23T02:20:04;11.40;;;7.60;;
73678;SDS011;61978;52.742;16.962;2023-05-23T02:22:31;9.00;;;7.10;;
73678;SDS011;61978;52.742;16.962;2023-05-23T02:24:57;11.10;;;8.00;;
73678;SDS011;61978;52.742;16.962;2023-05-23T02:27:22;13.80;;;8.10;;
73678;SDS011;61978;52.742;16.962;2023-05-23T02:29:48;15.80;;;8.40;;
73678;SDS011;61978;52.742;16.962;2023-05-23T02:32:14;15.70;;;7.80;;
73678;SDS011;61978;52.742;16.962;2023-05-23T02:34:41;12.10;;;8.20;;
73678;SDS011;61978;52.742;16.962;2023-05-23T02:37:07;12.70;;;8.10;;
73678;SDS011;61978;52.742;16.962;2023-05-23T02:39:34;17.00;;;9.00;;
73678;SDS011;61978;52.742;16.962;2023-05-23T02:42:01;13.70;;;8.60;;
73678;SDS011;61978;52.742;16.962;2023-05-23T02:44:27;12.80;;;9.20;;
73678;SDS011;61978;52.742;16.962;2023-05-23T02:46:53;15.90;;;9.00;;
73678;SDS011;61978;52.742;16.962;2023-05-23T02:49:19;14.00;;;8.00;;
73678;SDS011;61978;52.742;16.962;2023-05-23T02:51:45;9.50;;;8.50;;
73678;SDS011;61978;52.742;16.962;2023-05-23T02:54:11;16.10;;;8.40;;
73678;SDS011;61978;52.742;16.962;2023-05-23T02:56:37;17.70;;;8.80;;
73678;SDS011;61978;52.742;16.962;2023-05-23T02:59:03;12.60;;;8.90;;
73678;SDS011;61978;52.742;16.962;2023-05-23T03:01:29;12.10;;;9.10;;
73678;SDS011;61978;52.742;16.962;2023-05-23T03:03:55;12.20;;;9.10;;
73678;SDS011;61978;52.742;16.962;2023-05-23T03:06:21;11.10;;;8.20;;
73678;SDS011;61978;52.742;16.962;2023-05-23T03:08:47;12.90;;;9.10;;
73678;SDS011;61978;52.742;16.962;2023-05-23T03:11:13;10.90;;;8.20;;
73678;SDS011;61978;52.742;16.962;2023-05-23T03:13:42;11.70;;;8.60;;
73678;SDS011;61978;52.742;16.962;2023-05-23T03:16:08;14.30;;;8.30;;
73678;SDS011;61978;52.742;16.962;2023-05-23T03:18:34;12.40;;;8.20;;
73678;SDS011;61978;52.742;16.962;2023-05-23T03:21:00;11.90;;;8.50;;
73678;SDS011;61978;52.742;16.962;2023-05-23T03:23:26;10.20;;;8.30;;
73678;SDS011;61978;52.742;16.962;2023-05-23T03:25:51;10.20;;;8.50;;
73678;SDS011;61978;52.742;16.962;2023-05-23T03:28:17;17.20;;;9.20;;
73678;SDS011;61978;52.742;16.962;2023-05-23T03:30:43;11.20;;;8.20;;
73678;SDS011;61978;52.742;16.962;2023-05-23T03:33:09;11.10;;;8.60;;
73678;SDS011;61978;52.742;16.962;2023-05-23T03:35:35;12.80;;;8.60;;
73678;SDS011;61978;52.742;16.962;2023-05-23T03:38:01;14.90;;;8.10;;
73678;SDS011;61978;52.742;16.962;2023-05-23T03:40:27;12.70;;;8.30;;
73678;SDS011;61978;52.742;16.962;2023-05-23T03:43:03;13.20;;;8.30;;
73678;SDS011;61978;52.742;16.962;2023-05-23T03:45:30;13.80;;;8.00;;
73678;SDS011;61978;52.742;16.962;2023-05-23T03:47:57;11.30;;;9.00;;
73678;SDS011;61978;52.742;16.962;2023-05-23T03:50:23;13.10;;;9.50;;
73678;SDS011;61978;52.742;16.962;2023-05-23T03:52:49;13.10;;;8.40;;
73678;SDS011;61978;52.742;16.962;2023-05-23T03:55:15;11.90;;;9.20;;
73678;SDS011;61978;52.742;16.962;2023-05-23T03:57:41;13.90;;;8.30;;
73678;SDS011;61978;52.742;16.962;2023-05-23T04:00:07;15.70;;;9.30;;
73678;SDS011;61978;52.742;16.962;2023-05-23T04:02:42;11.50;;;8.30;;
73678;SDS011;61978;52.742;16.962;2023-05-23T04:05:08;15.90;;;9.20;;
73678;SDS011;61978;52.742;16.962;2023-05-23T04:07:35;11.60;;;8.80;;
73678;SDS011;61978;52.742;16.962;2023-05-23T04:10:02;20.70;;;9.70;;
73678;SDS011;61978;52.742;16.962;2023-05-23T04:12:28;17.80;;;9.20;;
73678;SDS011;61978;52.742;16.962;2023-05-23T04:14:57;14.20;;;9.60;;
73678;SDS011;61978;52.742;16.962;2023-05-23T04:17:23;12.20;;;9.10;;
73678;SDS011;61978;52.742;16.962;2023-05-23T04:19:50;15.70;;;8.90;;
73678;SDS011;61978;52.742;16.962;2023-05-23T04:22:17;13.20;;;8.20;;
73678;SDS011;61978;52.742;16.962;2023-05-23T04:24:43;13.40;;;7.90;;
73678;SDS011;61978;52.742;16.962;2023-05-23T04:27:09;12.20;;;8.20;;
73678;SDS011;61978;52.742;16.962;2023-05-23T04:29:36;9.10;;;8.10;;
73678;SDS011;61978;52.742;16.962;2023-05-23T04:32:03;10.40;;;7.60;;
73678;SDS011;61978;52.742;16.962;2023-05-23T04:34:30;14.30;;;7.70;;
73678;SDS011;61978;52.742;16.962;2023-05-23T04:36:58;15.00;;;7.60;;
73678;SDS011;61978;52.742;16.962;2023-05-23T04:39:26;18.40;;;7.80;;
73678;SDS011;61978;52.742;16.962;2023-05-23T04:42:14;11.50;;;7.80;;
73678;SDS011;61978;52.742;16.962;2023-05-23T04:45:06;14.10;;;7.50;;
73678;SDS011;61978;52.742;16.962;2023-05-23T04:47:58;16.40;;;7.90;;
73678;SDS011;61978;52.742;16.962;2023-05-23T04:50:43;12.90;;;6.50;;
73678;SDS011;61978;52.742;16.962;2023-05-23T04:53:12;11.30;;;6.80;;
73678;SDS011;61978;52.742;16.962;2023-05-23T04:55:38;11.90;;;6.20;;
73678;SDS011;61978;52.742;16.962;2023-05-23T04:58:06;10.70;;;5.90;;
73678;SDS011;61978;52.742;16.962;2023-05-23T05:00:32;9.20;;;5.40;;
73678;SDS011;61978;52.742;16.962;2023-05-23T05:02:59;8.50;;;6.40;;
73678;SDS011;61978;52.742;16.962;2023-05-23T05:05:28;15.10;;;6.00;;
73678;SDS011;61978;52.742;16.962;2023-05-23T05:07:54;12.80;;;6.70;;
73678;SDS011;61978;52.742;16.962;2023-05-23T05:10:20;12.40;;;5.90;;
73678;SDS011;61978;52.742;16.962;2023-05-23T05:12:46;9.10;;;5.70;;
73678;SDS011;61978;52.742;16.962;2023-05-23T05:15:16;11.30;;;5.80;;
73678;SDS011;61978;52.742;16.962;2023-05-23T05:17:45;13.20;;;6.00;;
73678;SDS011;61978;52.742;16.962;2023-05-23T05:20:13;10.00;;;6.00;;
73678;SDS011;61978;52.742;16.962;2023-05-23T05:22:40;11.70;;;5.70;;
73678;SDS011;61978;52.742;16.962;2023-05-23T05:25:08;11.00;;;5.70;;
73678;SDS011;61978;52.742;16.962;2023-05-23T05:27:34;7.10;;;5.00;;
73678;SDS011;61978;52.742;16.962;2023-05-23T05:30:07;7.90;;;5.30;;
73678;SDS011;61978;52.742;16.962;2023-05-23T05:32:43;8.10;;;4.70;;
73678;SDS011;61978;52.742;16.962;2023-05-23T05:35:12;7.50;;;5.00;;
73678;SDS011;61978;52.742;16.962;2023-05-23T05:37:39;10.20;;;5.00;;
73678;SDS011;61978;52.742;16.962;2023-05-23T05:40:06;10.70;;;4.90;;
73678;SDS011;61978;52.742;16.962;2023-05-23T05:42:35;8.50;;;4.90;;
73678;SDS011;61978;52.742;16.962;2023-05-23T05:45:00;13.90;;;4.70;;
73678;SDS011;61978;52.742;16.962;2023-05-23T05:47:27;9.60;;;5.10;;
73678;SDS011;61978;52.742;16.962;2023-05-23T05:49:53;8.50;;;5.20;;
73678;SDS011;61978;52.742;16.962;2023-05-23T05:52:19;8.30;;;5.10;;
73678;SDS011;61978;52.742;16.962;2023-05-23T05:54:45;8.60;;;5.10;;
73678;SDS011;61978;52.742;16.962;2023-05-23T05:57:11;7.40;;;4.60;;
73678;SDS011;61978;52.742;16.962;2023-05-23T05:59:37;7.80;;;4.90;;
73678;SDS011;61978;52.742;16.962;2023-05-23T06:02:03;6.10;;;4.40;;
73678;SDS011;61978;52.742;16.962;2023-05-23T06:04:30;9.50;;;4.30;;
73678;SDS011;61978;52.742;16.962;2023-05-23T06:06:56;9.40;;;4.20;;
73678;SDS011;61978;52.742;16.962;2023-05-23T06:09:22;7.20;;;4.00;;
73678;SDS011;61978;52.742;16.962;2023-05-23T06:11:48;4.90;;;4.00;;
73678;SDS011;61978;52.742;16.962;2023-05-23T06:14:14;6.80;;;4.10;;
73678;SDS011;61978;52.742;16.962;2023-05-23T06:16:42;7.20;;;4.10;;
73678;SDS011;61978;52.742;16.962;2023-05-23T06:19:07;5.20;;;4.40;;
73678;SDS011;61978;52.742;16.962;2023-05-23T06:21:33;8.80;;;4.40;;
73678;SDS011;61978;52.742;16.962;2023-05-23T06:24:00;6.40;;;4.50;;
73678;SDS011;61978;52.742;16.962;2023-05-23T06:26:26;11.50;;;4.40;;
73678;SDS011;61978;52.742;16.962;2023-05-23T06:28:51;6.40;;;4.80;;
73678;SDS011;61978;52.742;16.962;2023-05-23T06:31:17;10.20;;;4.20;;
73678;SDS011;61978;52.742;16.962;2023-05-23T06:33:43;6.70;;;4.40;;
73678;SDS011;61978;52.742;16.962;2023-05-23T06:36:09;11.50;;;4.50;;
73678;SDS011;61978;52.742;16.962;2023-05-23T06:38:35;9.40;;;4.00;;
73678;SDS011;61978;52.742;16.962;2023-05-23T06:41:01;5.90;;;4.20;;
73678;SDS011;61978;52.742;16.962;2023-05-23T06:43:28;6.70;;;4.00;;
73678;SDS011;61978;52.742;16.962;2023-05-23T06:46:10;10.30;;;4.70;;
73678;SDS011;61978;52.742;16.962;2023-05-23T06:48:36;8.60;;;4.30;;
73678;SDS011;61978;52.742;16.962;2023-05-23T06:51:02;7.10;;;3.80;;
73678;SDS011;61978;52.742;16.962;2023-05-23T06:53:28;6.00;;;4.00;;
73678;SDS011;61978;52.742;16.962;2023-05-23T06:55:54;9.80;;;4.10;;
73678;SDS011;61978;52.742;16.962;2023-05-23T06:58:21;10.10;;;4.70;;
73678;SDS011;61978;52.742;16.962;2023-05-23T07:00:49;9.00;;;4.50;;
73678;SDS011;61978;52.742;16.962;2023-05-23T07:03:27;5.40;;;4.20;;
73678;SDS011;61978;52.742;16.962;2023-05-23T07:05:54;7.90;;;4.40;;
73678;SDS011;61978;52.742;16.962;2023-05-23T07:08:21;8.40;;;4.00;;
73678;SDS011;61978;52.742;16.962;2023-05-23T07:10:59;5.30;;;4.30;;
73678;SDS011;61978;52.742;16.962;2023-05-23T07:13:35;7.90;;;4.30;;
73678;SDS011;61978;52.742;16.962;2023-05-23T07:16:02;5.60;;;4.20;;
73678;SDS011;61978;52.742;16.962;2023-05-23T07:18:28;8.00;;;4.60;;
73678;SDS011;61978;52.742;16.962;2023-05-23T07:20:55;67.40;;;7.00;;
73678;SDS011;61978;52.742;16.962;2023-05-23T07:23:21;9.20;;;4.10;;
73678;SDS011;61978;52.742;16.962;2023-05-23T07:25:49;10.20;;;4.40;;
73678;SDS011;61978;52.742;16.962;2023-05-23T07:28:22;7.20;;;4.50;;
73678;SDS011;61978;52.742;16.962;2023-05-23T07:30:48;9.00;;;4.10;;
73678;SDS011;61978;52.742;16.962;2023-05-23T07:33:13;8.00;;;4.80;;
73678;SDS011;61978;52.742;16.962;2023-05-23T07:35:40;7.10;;;4.40;;
73678;SDS011;61978;52.742;16.962;2023-05-23T07:38:06;8.20;;;4.10;;
73678;SDS011;61978;52.742;16.962;2023-05-23T07:40:32;8.50;;;4.40;;
73678;SDS011;61978;52.742;16.962;2023-05-23T07:42:58;12.10;;;5.80;;
73678;SDS011;61978;52.742;16.962;2023-05-23T07:45:24;7.10;;;4.40;;
73678;SDS011;61978;52.742;16.962;2023-05-23T07:47:50;6.40;;;4.60;;
73678;SDS011;61978;52.742;16.962;2023-05-23T07:50:16;10.10;;;4.40;;
73678;SDS011;61978;52.742;16.962;2023-05-23T07:52:43;6.00;;;4.00;;
73678;SDS011;61978;52.742;16.962;2023-05-23T07:55:12;7.60;;;4.60;;
73678;SDS011;61978;52.742;16.962;2023-05-23T07:57:37;8.10;;;4.80;;
73678;SDS011;61978;52.742;16.962;2023-05-23T08:00:03;6.20;;;4.50;;
73678;SDS011;61978;52.742;16.962;2023-05-23T08:02:40;10.50;;;4.00;;
73678;SDS011;61978;52.742;16.962;2023-05-23T08:05:07;10.80;;;4.30;;
73678;SDS011;61978;52.742;16.962;2023-05-23T08:07:35;10.30;;;4.50;;
73678;SDS011;61978;52.742;16.962;2023-05-23T08:10:02;7.30;;;4.00;;
73678;SDS011;61978;52.742;16.962;2023-05-23T08:12:27;8.00;;;4.50;;
73678;SDS011;61978;52.742;16.962;2023-05-23T08:15:00;9.80;;;4.50;;
73678;SDS011;61978;52.742;16.962;2023-05-23T08:17:40;7.20;;;3.70;;
73678;SDS011;61978;52.742;16.962;2023-05-23T08:20:06;8.30;;;4.40;;
73678;SDS011;61978;52.742;16.962;2023-05-23T08:22:33;8.50;;;4.20;;
73678;SDS011;61978;52.742;16.962;2023-05-23T08:24:58;8.80;;;4.30;;
73678;SDS011;61978;52.742;16.962;2023-05-23T08:27:25;9.80;;;4.40;;
73678;SDS011;61978;52.742;16.962;2023-05-23T08:29:54;12.30;;;3.80;;
73678;SDS011;61978;52.742;16.962;2023-05-23T08:32:20;25.40;;;5.60;;
73678;SDS011;61978;52.742;16.962;2023-05-23T08:34:47;13.70;;;4.10;;
73678;SDS011;61978;52.742;16.962;2023-05-23T08:37:13;6.30;;;4.00;;
73678;SDS011;61978;52.742;16.962;2023-05-23T08:39:39;5.50;;;4.20;;
73678;SDS011;61978;52.742;16.962;2023-05-23T08:42:29;7.90;;;4.40;;
73678;SDS011;61978;52.742;16.962;2023-05-23T08:44:55;23.20;;;4.20;;
73678;SDS011;61978;52.742;16.962;2023-05-23T08:47:21;9.80;;;4.00;;
73678;SDS011;61978;52.742;16.962;2023-05-23T08:49:51;6.80;;;3.60;;
73678;SDS011;61978;52.742;16.962;2023-05-23T08:52:19;8.20;;;4.00;;
73678;SDS011;61978;52.742;16.962;2023-05-23T08:54:47;11.00;;;4.10;;
73678;SDS011;61978;52.742;16.962;2023-05-23T08:57:13;7.90;;;3.70;;
73678;SDS011;61978;52.742;16.962;2023-05-23T08:59:41;4.00;;;3.00;;
73678;SDS011;61978;52.742;16.962;2023-05-23T09:02:07;7.30;;;3.90;;
73678;SDS011;61978;52.742;16.962;2023-05-23T09:04:36;8.80;;;4.00;;
73678;SDS011;61978;52.742;16.962;2023-05-23T09:07:09;4.90;;;3.50;;
73678;SDS011;61978;52.742;16.962;2023-05-23T09:09:36;7.50;;;3.80;;
73678;SDS011;61978;52.742;16.962;2023-05-23T09:12:02;5.00;;;4.10;;
73678;SDS011;61978;52.742;16.962;2023-05-23T09:14:28;7.30;;;3.20;;
73678;SDS011;61978;52.742;16.962;2023-05-23T09:17:01;6.10;;;3.50;;
73678;SDS011;61978;52.742;16.962;2023-05-23T09:19:27;8.50;;;3.00;;
73678;SDS011;61978;52.742;16.962;2023-05-23T09:21:59;5.60;;;3.80;;
73678;SDS011;61978;52.742;16.962;2023-05-23T09:24:32;7.50;;;3.20;;
73678;SDS011;61978;52.742;16.962;2023-05-23T09:26:59;6.50;;;3.30;;
73678;SDS011;61978;52.742;16.962;2023-05-23T09:29:26;5.40;;;3.30;;
73678;SDS011;61978;52.742;16.962;2023-05-23T09:31:52;6.00;;;3.30;;
73678;SDS011;61978;52.742;16.962;2023-05-23T09:34:24;7.60;;;3.30;;
73678;SDS011;61978;52.742;16.962;2023-05-23T09:36:53;6.20;;;2.80;;
73678;SDS011;61978;52.742;16.962;2023-05-23T09:39:20;6.10;;;3.10;;
73678;SDS011;61978;52.742;16.962;2023-05-23T09:41:47;5.70;;;3.30;;
73678;SDS011;61978;52.742;16.962;2023-05-23T09:44:13;10.50;;;3.60;;
73678;SDS011;61978;52.742;16.962;2023-05-23T09:46:38;8.10;;;3.70;;
73678;SDS011;61978;52.742;16.962;2023-05-23T09:49:15;5.60;;;3.20;;
73678;SDS011;61978;52.742;16.962;2023-05-23T09:51:55;4.10;;;3.00;;
73678;SDS011;61978;52.742;16.962;2023-05-23T09:54:21;12.50;;;3.00;;
73678;SDS011;61978;52.742;16.962;2023-05-23T09:56:47;6.70;;;3.30;;
73678;SDS011;61978;52.742;16.962;2023-05-23T09:59:13;8.20;;;2.90;;
73678;SDS011;61978;52.742;16.962;2023-05-23T10:01:41;6.50;;;3.50;;
73678;SDS011;61978;52.742;16.962;2023-05-23T10:04:09;9.50;;;3.30;;
73678;SDS011;61978;52.742;16.962;2023-05-23T10:06:43;12.10;;;3.70;;
73678;SDS011;61978;52.742;16.962;2023-05-23T10:09:12;8.20;;;3.70;;
73678;SDS011;61978;52.742;16.962;2023-05-23T10:14:13;6.30;;;3.60;;
73678;SDS011;61978;52.742;16.962;2023-05-23T10:16:43;6.30;;;3.40;;
73678;SDS011;61978;52.742;16.962;2023-05-23T10:21:39;10.40;;;3.50;;
73678;SDS011;61978;52.742;16.962;2023-05-23T10:24:08;4.50;;;2.70;;
73678;SDS011;61978;52.742;16.962;2023-05-23T10:26:37;3.90;;;3.00;;
73678;SDS011;61978;52.742;16.962;2023-05-23T10:29:02;5.70;;;3.20;;
73678;SDS011;61978;52.742;16.962;2023-05-23T10:31:29;8.90;;;3.40;;
73678;SDS011;61978;52.742;16.962;2023-05-23T10:33:59;12.60;;;3.50;;
73678;SDS011;61978;52.742;16.962;2023-05-23T10:36:37;6.90;;;3.60;;
73678;SDS011;61978;52.742;16.962;2023-05-23T10:39:57;10.20;;;3.20;;
73678;SDS011;61978;52.742;16.962;2023-05-23T10:44:49;3.70;;;2.90;;
73678;SDS011;61978;52.742;16.962;2023-05-23T10:47:25;7.10;;;3.30;;
73678;SDS011;61978;52.742;16.962;2023-05-23T10:49:53;9.10;;;3.30;;
73678;SDS011;61978;52.742;16.962;2023-05-23T10:52:20;10.10;;;3.10;;
73678;SDS011;61978;52.742;16.962;2023-05-23T10:54:52;11.10;;;3.30;;
73678;SDS011;61978;52.742;16.962;2023-05-23T10:57:20;4.90;;;2.80;;
73678;SDS011;61978;52.742;16.962;2023-05-23T10:59:46;10.80;;;3.30;;
73678;SDS011;61978;52.742;16.962;2023-05-23T11:02:15;10.20;;;3.00;;
73678;SDS011;61978;52.742;16.962;2023-05-23T11:04:41;7.80;;;3.60;;
73678;SDS011;61978;52.742;16.962;2023-05-23T11:12:39;9.40;;;3.00;;
73678;SDS011;61978;52.742;16.962;2023-05-23T11:17:52;6.90;;;2.80;;
73678;SDS011;61978;52.742;16.962;2023-05-23T11:20:20;4.40;;;2.90;;
73678;SDS011;61978;52.742;16.962;2023-05-23T11:22:54;4.50;;;2.60;;
73678;SDS011;61978;52.742;16.962;2023-05-23T11:25:38;3.50;;;2.80;;
73678;SDS011;61978;52.742;16.962;2023-05-23T11:28:04;4.80;;;3.10;;
73678;SDS011;61978;52.742;16.962;2023-05-23T11:30:30;2.70;;;2.40;;
73678;SDS011;61978;52.742;16.962;2023-05-23T11:32:56;8.80;;;2.60;;
73678;SDS011;61978;52.742;16.962;2023-05-23T11:35:22;6.80;;;2.80;;
73678;SDS011;61978;52.742;16.962;2023-05-23T11:37:48;5.50;;;2.70;;
73678;SDS011;61978;52.742;16.962;2023-05-23T11:40:33;4.10;;;2.50;;
73678;SDS011;61978;52.742;16.962;2023-05-23T11:42:59;7.10;;;2.70;;
73678;SDS011;61978;52.742;16.962;2023-05-23T11:45:25;5.00;;;2.70;;
73678;SDS011;61978;52.742;16.962;2023-05-23T11:47:53;4.80;;;2.80;;
73678;SDS011;61978;52.742;16.962;2023-05-23T11:50:19;8.80;;;2.80;;
73678;SDS011;61978;52.742;16.962;2023-05-23T11:52:47;4.30;;;2.70;;
73678;SDS011;61978;52.742;16.962;2023-05-23T11:55:16;3.40;;;2.90;;
73678;SDS011;61978;52.742;16.962;2023-05-23T11:57:42;3.00;;;2.40;;
73678;SDS011;61978;52.742;16.962;2023-05-23T12:00:08;3.20;;;2.40;;
73678;SDS011;61978;52.742;16.962;2023-05-23T12:02:38;4.80;;;2.60;;
73678;SDS011;61978;52.742;16.962;2023-05-23T12:05:08;4.50;;;2.60;;
73678;SDS011;61978;52.742;16.962;2023-05-23T12:07:36;4.80;;;3.00;;
73678;SDS011;61978;52.742;16.962;2023-05-23T12:10:04;8.20;;;2.70;;
73678;SDS011;61978;52.742;16.962;2023-05-23T12:12:30;5.20;;;3.00;;
73678;SDS011;61978;52.742;16.962;2023-05-23T12:14:56;4.50;;;3.30;;
73678;SDS011;61978;52.742;16.962;2023-05-23T12:17:22;3.40;;;2.60;;
73678;SDS011;61978;52.742;16.962;2023-05-23T12:19:48;7.00;;;2.80;;
73678;SDS011;61978;52.742;16.962;2023-05-23T12:22:14;6.20;;;2.70;;
73678;SDS011;61978;52.742;16.962;2023-05-23T12:24:45;7.80;;;2.90;;
73678;SDS011;61978;52.742;16.962;2023-05-23T12:27:11;5.80;;;3.20;;
73678;SDS011;61978;52.742;16.962;2023-05-23T12:29:37;3.20;;;2.80;;
73678;SDS011;61978;52.742;16.962;2023-05-23T12:32:04;7.90;;;3.30;;
73678;SDS011;61978;52.742;16.962;2023-05-23T12:34:30;4.50;;;2.60;;
73678;SDS011;61978;52.742;16.962;2023-05-23T12:36:56;7.00;;;2.90;;
73678;SDS011;61978;52.742;16.962;2023-05-23T12:39:26;4.20;;;2.70;;
73678;SDS011;61978;52.742;16.962;2023-05-23T12:41:53;4.00;;;2.60;;
73678;SDS011;61978;52.742;16.962;2023-05-23T12:44:21;5.20;;;3.10;;
73678;SDS011;61978;52.742;16.962;2023-05-23T12:46:46;6.70;;;2.90;;
73678;SDS011;61978;52.742;16.962;2023-05-23T12:49:13;6.00;;;3.00;;
73678;SDS011;61978;52.742;16.962;2023-05-23T12:51:39;4.80;;;2.70;;
73678;SDS011;61978;52.742;16.962;2023-05-23T12:54:05;5.40;;;2.40;;
73678;SDS011;61978;52.742;16.962;2023-05-23T12:56:33;6.90;;;3.10;;
73678;SDS011;61978;52.742;16.962;2023-05-23T12:58:59;12.80;;;3.70;;
73678;SDS011;61978;52.742;16.962;2023-05-23T13:01:26;9.10;;;4.60;;
73678;SDS011;61978;52.742;16.962;2023-05-23T13:03:52;8.50;;;4.50;;
73678;SDS011;61978;52.742;16.962;2023-05-23T13:06:18;8.40;;;5.00;;
73678;SDS011;61978;52.742;16.962;2023-05-23T13:08:43;10.20;;;5.50;;
73678;SDS011;61978;52.742;16.962;2023-05-23T13:11:09;6.00;;;4.40;;
73678;SDS011;61978;52.742;16.962;2023-05-23T13:13:35;14.00;;;5.40;;
73678;SDS011;61978;52.742;16.962;2023-05-23T13:16:00;9.20;;;4.80;;
73678;SDS011;61978;52.742;16.962;2023-05-23T13:18:26;8.10;;;4.90;;
73678;SDS011;61978;52.742;16.962;2023-05-23T13:20:51;15.90;;;5.40;;
73678;SDS011;61978;52.742;16.962;2023-05-23T13:23:17;41.50;;;7.00;;
73678;SDS011;61978;52.742;16.962;2023-05-23T13:25:43;10.00;;;5.20;;
73678;SDS011;61978;52.742;16.962;2023-05-23T13:28:09;14.20;;;5.70;;
73678;SDS011;61978;52.742;16.962;2023-05-23T13:30:34;62.90;;;9.30;;
73678;SDS011;61978;52.742;16.962;2023-05-23T13:33:00;5.80;;;4.40;;
73678;SDS011;61978;52.742;16.962;2023-05-23T13:35:26;8.70;;;4.40;;
73678;SDS011;61978;52.742;16.962;2023-05-23T13:37:52;13.50;;;5.50;;
73678;SDS011;61978;52.742;16.962;2023-05-23T13:40:19;8.30;;;5.70;;
73678;SDS011;61978;52.742;16.962;2023-05-23T13:42:46;7.80;;;5.20;;
73678;SDS011;61978;52.742;16.962;2023-05-23T13:45:11;11.60;;;6.30;;
73678;SDS011;61978;52.742;16.962;2023-05-23T13:47:38;5.50;;;4.60;;
73678;SDS011;61978;52.742;16.962;2023-05-23T13:50:03;10.00;;;5.50;;
73678;SDS011;61978;52.742;16.962;2023-05-23T13:52:29;11.00;;;5.30;;
73678;SDS011;61978;52.742;16.962;2023-05-23T13:54:55;9.60;;;6.00;;
73678;SDS011;61978;52.742;16.962;2023-05-23T13:57:21;8.60;;;6.20;;
73678;SDS011;61978;52.742;16.962;2023-05-23T13:59:47;12.90;;;6.40;;
73678;SDS011;61978;52.742;16.962;2023-05-23T14:02:12;7.10;;;5.00;;
73678;SDS011;61978;52.742;16.962;2023-05-23T14:04:38;7.40;;;6.50;;
73678;SDS011;61978;52.742;16.962;2023-05-23T14:07:04;5.90;;;5.20;;
73678;SDS011;61978;52.742;16.962;2023-05-23T14:09:30;9.40;;;6.40;;
73678;SDS011;61978;52.742;16.962;2023-05-23T14:11:55;9.80;;;6.40;;
73678;SDS011;61978;52.742;16.962;2023-05-23T14:14:21;9.70;;;6.50;;
73678;SDS011;61978;52.742;16.962;2023-05-23T14:16:49;8.20;;;6.50;;
73678;SDS011;61978;52.742;16.962;2023-05-23T14:19:14;18.40;;;8.30;;
73678;SDS011;61978;52.742;16.962;2023-05-23T14:21:40;9.60;;;6.10;;
73678;SDS011;61978;52.742;16.962;2023-05-23T14:24:06;6.80;;;5.90;;
73678;SDS011;61978;52.742;16.962;2023-05-23T14:26:32;11.00;;;5.70;;
73678;SDS011;61978;52.742;16.962;2023-05-23T14:28:58;10.40;;;6.20;;
73678;SDS011;61978;52.742;16.962;2023-05-23T14:31:24;10.50;;;5.60;;
73678;SDS011;61978;52.742;16.962;2023-05-23T14:33:49;9.60;;;4.90;;
73678;SDS011;61978;52.742;16.962;2023-05-23T14:36:15;7.00;;;5.60;;
73678;SDS011;61978;52.742;16.962;2023-05-23T14:38:42;7.50;;;5.80;;
73678;SDS011;61978;52.742;16.962;2023-05-23T14:41:13;11.00;;;5.90;;
73678;SDS011;61978;52.742;16.962;2023-05-23T14:43:39;11.20;;;5.70;;
73678;SDS011;61978;52.742;16.962;2023-05-23T14:46:05;6.90;;;5.50;;
73678;SDS011;61978;52.742;16.962;2023-05-23T14:48:31;6.60;;;5.20;;
73678;SDS011;61978;52.742;16.962;2023-05-23T14:50:57;9.00;;;5.10;;
73678;SDS011;61978;52.742;16.962;2023-05-23T14:53:29;11.30;;;4.90;;
73678;SDS011;61978;52.742;16.962;2023-05-23T14:55:55;10.30;;;4.70;;